createdAt,value
2023-05-25T00:01:01.984Z,13.41
2023-05-25T00:03:33.835Z,13.41
2023-05-25T00:06:02.385Z,13.39
2023-05-25T00:08:30.811Z,13.36
2023-05-25T00:10:58.918Z,13.35
2023-05-25T00:13:27.046Z,13.35
2023-05-25T00:15:55.706Z,13.34
2023-05-25T00:18:25.001Z,13.33
2023-05-25T00:20:55.121Z,13.33
2023-05-25T00:23:23.538Z,13.33
2023-05-25T00:25:51.570Z,13.30
2023-05-25T00:28:19.720Z,13.27
2023-05-25T00:30:48.156Z,13.22
2023-05-25T00:33:16.608Z,13.22
2023-05-25T00:35:45.409Z,13.21
2023-05-25T00:38:17.745Z,13.22
2023-05-25T00:40:46.685Z,13.21
2023-05-25T00:43:15.276Z,13.20
2023-05-25T00:45:43.582Z,13.18
2023-05-25T00:48:12.207Z,13.16
2023-05-25T00:50:42.351Z,13.14
2023-05-25T00:53:12.777Z,13.14
2023-05-25T00:55:46.751Z,13.12
2023-05-25T00:58:17.917Z,13.10
2023-05-25T01:00:49.481Z,13.09
2023-05-25T01:03:22.119Z,13.09
2023-05-25T01:05:55.266Z,12.98
2023-05-25T01:08:25.389Z,12.98
2023-05-25T01:10:58.206Z,12.97
2023-05-25T01:13:26.548Z,12.96
2023-05-25T01:15:55.380Z,12.93
2023-05-25T01:18:23.536Z,12.91
2023-05-25T01:20:59.882Z,12.89
2023-05-25T01:23:33.939Z,12.85
2023-05-25T01:26:06.792Z,12.82
2023-05-25T01:28:41.114Z,12.80
2023-05-25T01:31:10.325Z,12.79
2023-05-25T01:33:39.703Z,12.77
2023-05-25T01:36:09.174Z,12.74
2023-05-25T01:38:38.366Z,12.72
2023-05-25T01:41:06.727Z,12.69
2023-05-25T01:43:34.799Z,12.64
2023-05-25T01:46:12.227Z,12.60
2023-05-25T01:48:53.192Z,12.54
2023-05-25T01:51:32.350Z,12.50
2023-05-25T01:54:04.274Z,12.49
2023-05-25T01:56:34.621Z,12.49
2023-05-25T01:59:04.426Z,12.49
2023-05-25T02:01:36.574Z,12.48
2023-05-25T02:04:05.855Z,12.44
2023-05-25T02:06:36.883Z,12.36
2023-05-25T02:09:07.029Z,12.26
2023-05-25T02:11:35.027Z,12.27
2023-05-25T02:14:03.056Z,12.28
2023-05-25T02:16:31.623Z,12.23
2023-05-25T02:19:01.212Z,12.20
2023-05-25T02:21:29.416Z,12.17
2023-05-25T02:23:59.083Z,12.19
2023-05-25T02:26:27.569Z,12.14
2023-05-25T02:28:56.295Z,12.12
2023-05-25T02:31:24.299Z,12.13
2023-05-25T02:33:52.668Z,12.13
2023-05-25T02:36:21.187Z,12.17
2023-05-25T02:38:52.169Z,12.17
2023-05-25T02:41:22.338Z,12.17
2023-05-25T02:43:50.761Z,12.13
2023-05-25T02:46:19.036Z,12.06
2023-05-25T02:48:48.519Z,12.07
2023-05-25T02:51:16.637Z,12.06
2023-05-25T02:53:44.786Z,12.09
2023-05-25T02:56:13.288Z,12.08
2023-05-25T02:58:42.891Z,12.01
2023-05-25T03:01:18.298Z,11.96
2023-05-25T03:03:47.788Z,11.92
2023-05-25T03:06:16.070Z,11.89
2023-05-25T03:08:44.641Z,11.88
2023-05-25T03:11:12.925Z,11.81
2023-05-25T03:13:42.551Z,11.77
2023-05-25T03:16:11.013Z,11.80
2023-05-25T03:18:39.488Z,11.82
2023-05-25T03:21:08.065Z,11.88
2023-05-25T03:23:36.405Z,11.90
2023-05-25T03:26:05.038Z,11.94
2023-05-25T03:28:33.829Z,11.95
2023-05-25T03:31:05.220Z,11.95
2023-05-25T03:33:34.150Z,11.97
2023-05-25T03:36:02.562Z,12.04
2023-05-25T03:38:31.088Z,12.10
2023-05-25T03:41:06.309Z,12.12
2023-05-25T03:43:34.902Z,12.08
2023-05-25T03:46:06.411Z,12.14
2023-05-25T03:48:41.820Z,12.19
2023-05-25T03:51:11.696Z,12.25
2023-05-25T03:53:40.043Z,12.24
2023-05-25T03:56:09.178Z,12.24
2023-05-25T03:58:38.411Z,12.25
2023-05-25T04:01:10.402Z,12.30
2023-05-25T04:03:38.837Z,12.37
2023-05-25T04:06:07.343Z,12.45
2023-05-25T04:08:35.422Z,12.51
2023-05-25T04:11:05.646Z,12.51
2023-05-25T04:13:36.320Z,12.55
2023-05-25T04:16:09.557Z,12.62
2023-05-25T04:18:37.848Z,12.69
2023-05-25T04:21:06.254Z,12.73
2023-05-25T04:23:34.950Z,12.80
2023-05-25T04:26:06.046Z,12.87
2023-05-25T04:28:34.471Z,12.95
2023-05-25T04:31:02.622Z,13.07
2023-05-25T04:33:32.490Z,13.16
2023-05-25T04:36:01.022Z,13.26
2023-05-25T04:38:30.823Z,13.34
2023-05-25T04:41:01.985Z,13.43
2023-05-25T04:43:30.915Z,13.52
2023-05-25T04:45:59.770Z,13.61
2023-05-25T04:48:29.587Z,13.70
2023-05-25T04:51:03.019Z,13.77
2023-05-25T04:53:32.338Z,13.96
2023-05-25T04:56:00.666Z,14.05
2023-05-25T04:58:29.554Z,14.25
2023-05-25T05:00:57.870Z,14.41
2023-05-25T05:03:26.285Z,14.54
2023-05-25T05:05:54.589Z,14.68
2023-05-25T05:08:24.577Z,14.79
2023-05-25T05:10:53.240Z,14.87
2023-05-25T05:13:21.328Z,15.07
2023-05-25T05:15:49.404Z,15.09
2023-05-25T05:18:17.807Z,15.27
2023-05-25T05:20:46.099Z,15.47
2023-05-25T05:23:14.551Z,15.53
2023-05-25T05:25:44.507Z,15.70
2023-05-25T05:28:12.830Z,15.85
2023-05-25T05:30:41.059Z,15.99
2023-05-25T05:33:09.482Z,16.09
2023-05-25T05:35:37.900Z,16.16
2023-05-25T05:38:06.234Z,16.26
2023-05-25T05:40:34.806Z,16.26
2023-05-25T05:43:04.170Z,16.43
2023-05-25T05:45:32.263Z,16.52
2023-05-25T05:48:00.588Z,16.82
2023-05-25T05:50:29.237Z,17.02
2023-05-25T05:52:57.429Z,17.24
2023-05-25T05:55:26.419Z,17.40
2023-05-25T05:57:54.611Z,17.69
2023-05-25T06:00:24.710Z,18.05
2023-05-25T06:02:53.294Z,18.15
2023-05-25T06:05:21.888Z,18.28
2023-05-25T06:07:50.196Z,18.41
2023-05-25T06:10:20.045Z,18.56
2023-05-25T06:12:48.219Z,18.60
2023-05-25T06:15:17.538Z,18.74
2023-05-25T06:17:47.300Z,18.83
2023-05-25T06:20:16.674Z,18.92
2023-05-25T06:22:44.897Z,19.11
2023-05-25T06:25:14.070Z,19.05
2023-05-25T06:27:42.204Z,19.27
2023-05-25T06:30:10.959Z,19.23
2023-05-25T06:32:39.997Z,19.41
2023-05-25T06:35:13.336Z,19.59
2023-05-25T06:37:41.846Z,19.79
2023-05-25T06:40:11.379Z,20.05
2023-05-25T06:42:39.493Z,20.33
2023-05-25T06:45:11.103Z,20.41
2023-05-25T06:47:39.289Z,20.51
2023-05-25T06:50:10.474Z,20.59
2023-05-25T06:52:38.468Z,20.60
2023-05-25T06:55:08.508Z,20.61
2023-05-25T06:57:36.891Z,20.71
2023-05-25T07:00:11.601Z,20.72
2023-05-25T07:02:40.213Z,20.67
2023-05-25T07:05:10.171Z,20.46
2023-05-25T07:07:38.303Z,20.27
2023-05-25T07:10:08.007Z,20.29
2023-05-25T07:12:36.018Z,20.44
2023-05-25T07:15:04.181Z,20.70
2023-05-25T07:17:32.864Z,20.82
2023-05-25T07:20:01.035Z,21.02
2023-05-25T07:22:30.703Z,21.05
2023-05-25T07:24:59.023Z,21.12
2023-05-25T07:27:27.196Z,21.21
2023-05-25T07:29:55.307Z,21.17
2023-05-25T07:32:23.697Z,21.35
2023-05-25T07:34:51.780Z,21.31
2023-05-25T07:37:19.879Z,21.56
2023-05-25T07:39:50.558Z,21.68
2023-05-25T07:42:21.005Z,21.77
2023-05-25T07:44:49.810Z,21.87
2023-05-25T07:47:17.798Z,22.09
2023-05-25T07:49:45.969Z,22.22
2023-05-25T07:52:14.377Z,22.40
2023-05-25T07:54:42.422Z,22.46
2023-05-25T07:57:12.107Z,22.42
2023-05-25T07:59:40.442Z,22.60
2023-05-25T08:02:08.471Z,22.41
2023-05-25T08:04:37.509Z,22.49
2023-05-25T08:07:05.863Z,22.58
2023-05-25T08:09:33.959Z,22.97
2023-05-25T08:12:24.226Z,23.05
2023-05-25T08:14:51.871Z,23.27
2023-05-25T08:17:20.257Z,23.46
2023-05-25T08:19:48.476Z,23.98
2023-05-25T08:22:16.458Z,23.60
2023-05-25T08:24:44.725Z,23.59
2023-05-25T08:27:12.751Z,23.62
2023-05-25T08:29:40.811Z,23.74
2023-05-25T08:32:10.748Z,24.19
2023-05-25T08:34:38.731Z,24.60
2023-05-25T08:37:06.832Z,24.96
2023-05-25T08:39:35.178Z,24.98
2023-05-25T08:42:03.823Z,24.90
2023-05-25T08:44:32.309Z,24.62
2023-05-25T08:47:06.739Z,24.27
2023-05-25T08:49:39.603Z,23.56
2023-05-25T08:52:11.787Z,23.70
2023-05-25T08:54:44.175Z,23.71
2023-05-25T08:57:18.139Z,23.95
2023-05-25T08:59:52.978Z,24.46
2023-05-25T09:02:32.681Z,24.69
2023-05-25T09:05:02.848Z,25.13
2023-05-25T09:07:32.032Z,25.26
2023-05-25T09:10:01.915Z,25.49
2023-05-25T09:12:31.399Z,25.50
2023-05-25T09:14:59.708Z,25.81
2023-05-25T09:17:28.238Z,26.04
2023-05-25T09:19:56.591Z,26.33
2023-05-25T09:22:26.180Z,26.70
2023-05-25T09:24:55.084Z,27.07
2023-05-25T09:27:24.565Z,27.48
2023-05-25T09:29:53.162Z,27.49
2023-05-25T09:32:21.287Z,27.20
2023-05-25T09:34:49.828Z,26.93
2023-05-25T09:37:19.611Z,26.46
2023-05-25T09:39:53.192Z,25.91
2023-05-25T09:42:21.727Z,25.60
2023-05-25T09:44:50.596Z,25.58
2023-05-25T09:47:18.789Z,25.60
2023-05-25T09:49:49.434Z,25.65
2023-05-25T09:52:17.506Z,26.11
2023-05-25T09:54:46.998Z,26.21
2023-05-25T09:57:17.442Z,26.53
2023-05-25T09:59:46.186Z,26.80
2023-05-25T10:02:14.506Z,26.77
2023-05-25T10:04:43.009Z,26.36
2023-05-25T10:07:11.458Z,26.16
2023-05-25T10:09:42.278Z,26.23
2023-05-25T10:12:11.332Z,26.62
2023-05-25T10:14:43.955Z,26.93
2023-05-25T10:17:15.189Z,27.01
2023-05-25T10:19:51.598Z,27.54
2023-05-25T10:22:22.858Z,27.82
2023-05-25T10:24:56.690Z,27.80
2023-05-25T10:27:27.746Z,27.52
2023-05-25T10:30:00.904Z,27.40
2023-05-25T10:32:30.599Z,27.37
2023-05-25T10:35:00.539Z,27.13
2023-05-25T10:37:29.244Z,26.91
2023-05-25T10:39:58.978Z,26.95
2023-05-25T10:42:27.666Z,27.04
2023-05-25T10:44:56.530Z,27.22
2023-05-25T10:47:26.893Z,27.36
2023-05-25T10:49:58.089Z,27.92
2023-05-25T10:52:30.058Z,28.54
2023-05-25T10:54:59.320Z,28.32
2023-05-25T10:57:28.072Z,28.30
2023-05-25T11:00:04.424Z,27.82
2023-05-25T11:02:55.326Z,27.72
2023-05-25T11:05:40.284Z,27.34
2023-05-25T11:08:10.121Z,27.09
2023-05-25T11:10:59.895Z,27.30
2023-05-25T11:13:38.907Z,26.98
2023-05-25T11:16:35.913Z,26.87
2023-05-25T11:19:15.702Z,26.95
2023-05-25T11:21:45.490Z,27.12
2023-05-25T11:24:15.884Z,27.67
2023-05-25T11:26:58.016Z,28.45
2023-05-25T11:29:27.195Z,29.25
2023-05-25T11:31:56.724Z,29.57
2023-05-25T11:34:26.253Z,29.05
2023-05-25T11:36:57.751Z,29.00
2023-05-25T11:39:25.812Z,28.39
2023-05-25T11:41:57.054Z,27.50
2023-05-25T11:44:30.184Z,27.46
2023-05-25T11:47:01.741Z,27.70
2023-05-25T11:49:31.697Z,27.85
2023-05-25T11:51:59.898Z,27.80
2023-05-25T11:54:29.853Z,28.17
2023-05-25T11:56:59.895Z,28.45
2023-05-25T11:59:30.544Z,28.45
2023-05-25T12:02:02.046Z,28.39
2023-05-25T12:04:34.075Z,28.36
2023-05-25T12:07:06.279Z,28.21
2023-05-25T12:09:36.650Z,27.77
2023-05-25T12:12:05.371Z,27.55
2023-05-25T12:14:36.150Z,27.58
2023-05-25T12:17:04.939Z,27.64
2023-05-25T12:19:34.774Z,27.71
2023-05-25T12:22:03.845Z,27.98
2023-05-25T12:24:32.326Z,28.44
2023-05-25T12:27:02.377Z,28.62
2023-05-25T12:29:30.465Z,28.91
2023-05-25T12:32:03.584Z,28.76
2023-05-25T12:34:31.664Z,28.70
2023-05-25T12:37:01.612Z,29.06
2023-05-25T12:39:38.783Z,28.93
2023-05-25T12:42:15.233Z,28.78
2023-05-25T12:44:44.300Z,28.71
2023-05-25T12:47:14.392Z,28.86
2023-05-25T12:49:44.019Z,28.71
2023-05-25T12:52:33.166Z,29.03
2023-05-25T12:55:20.161Z,29.52
2023-05-25T12:57:52.456Z,29.31
2023-05-25T13:00:22.001Z,29.03
2023-05-25T13:02:50.964Z,29.00
2023-05-25T13:05:20.864Z,28.98
2023-05-25T13:07:50.880Z,28.91
2023-05-25T13:10:19.618Z,29.15
2023-05-25T13:12:48.460Z,29.28
2023-05-25T13:15:21.056Z,28.99
2023-05-25T13:17:50.486Z,29.31
2023-05-25T13:20:19.842Z,29.69
2023-05-25T13:22:50.694Z,29.51
2023-05-25T13:25:22.042Z,29.74
2023-05-25T13:27:51.946Z,29.56
2023-05-25T13:30:22.118Z,29.92
2023-05-25T13:32:51.916Z,30.02
2023-05-25T13:35:34.090Z,30.42
2023-05-25T13:38:03.603Z,30.52
2023-05-25T13:40:32.056Z,30.84
2023-05-25T13:43:00.175Z,30.90
2023-05-25T13:45:28.575Z,31.16
2023-05-25T13:47:56.915Z,31.06
2023-05-25T13:50:25.122Z,30.76
2023-05-25T13:52:53.188Z,30.34
2023-05-25T13:55:24.054Z,29.66
2023-05-25T13:57:52.906Z,29.68
2023-05-25T14:00:21.866Z,30.00
2023-05-25T14:02:51.904Z,29.83
2023-05-25T14:05:20.791Z,29.60
2023-05-25T14:07:49.351Z,29.55
2023-05-25T14:10:17.807Z,29.14
2023-05-25T14:12:47.901Z,28.88
2023-05-25T14:15:18.838Z,28.48
2023-05-25T14:17:47.459Z,28.17
2023-05-25T14:20:22.395Z,27.77
2023-05-25T14:22:50.684Z,28.14
2023-05-25T14:25:19.078Z,28.51
2023-05-25T14:27:48.484Z,28.76
2023-05-25T14:30:17.156Z,29.16
2023-05-25T14:32:45.318Z,29.61
2023-05-25T14:35:13.363Z,29.74
2023-05-25T14:37:42.222Z,30.07
2023-05-25T14:40:11.428Z,30.23
2023-05-25T14:42:39.444Z,30.66
2023-05-25T14:45:11.586Z,30.67
2023-05-25T14:47:40.797Z,31.11
2023-05-25T14:50:09.738Z,31.31
2023-05-25T14:52:37.880Z,30.87
2023-05-25T14:55:06.556Z,30.45
2023-05-25T14:57:34.821Z,30.03
2023-05-25T15:00:03.299Z,29.53
2023-05-25T15:02:33.118Z,29.08
2023-05-25T15:05:01.579Z,29.59
2023-05-25T15:07:29.676Z,30.47
2023-05-25T15:09:57.805Z,31.05
2023-05-25T15:12:26.035Z,31.88
2023-05-25T15:14:54.055Z,32.25
2023-05-25T15:17:22.024Z,31.98
2023-05-25T15:19:51.805Z,32.12
2023-05-25T15:22:19.915Z,32.12
2023-05-25T15:24:48.011Z,32.43
2023-05-25T15:27:16.256Z,32.79
2023-05-25T15:29:44.257Z,33.38
2023-05-25T15:32:13.740Z,33.47
2023-05-25T15:34:42.735Z,33.96
2023-05-25T15:37:13.155Z,33.97
2023-05-25T15:39:41.398Z,34.20
2023-05-25T15:42:09.456Z,33.71
2023-05-25T15:44:37.494Z,33.57
2023-05-25T15:47:06.633Z,33.45
2023-05-25T15:49:36.767Z,33.17
2023-05-25T15:52:06.573Z,33.44
2023-05-25T15:54:36.363Z,33.46
2023-05-25T15:57:04.635Z,33.22
2023-05-25T15:59:32.622Z,33.40
2023-05-25T16:02:01.004Z,33.70
2023-05-25T16:04:29.314Z,33.91
2023-05-25T16:06:58.497Z,33.74
2023-05-25T16:09:27.451Z,34.41
2023-05-25T16:11:57.090Z,33.90
2023-05-25T16:14:25.149Z,34.05
2023-05-25T16:16:53.263Z,34.44
2023-05-25T16:19:21.574Z,34.24
2023-05-25T16:21:49.729Z,34.40
2023-05-25T16:24:17.822Z,33.98
2023-05-25T16:26:46.081Z,34.32
2023-05-25T16:29:15.559Z,34.32
2023-05-25T16:31:43.577Z,34.22
2023-05-25T16:34:11.774Z,34.18
2023-05-25T16:36:39.752Z,33.80
2023-05-25T16:39:08.102Z,33.70
2023-05-25T16:41:36.414Z,33.77
2023-05-25T16:44:04.532Z,34.04
2023-05-25T16:46:34.129Z,34.47
2023-05-25T16:49:02.536Z,34.72
2023-05-25T16:51:30.727Z,34.94
2023-05-25T16:53:58.786Z,34.70
2023-05-25T16:56:27.223Z,34.98
2023-05-25T16:58:55.162Z,34.79
2023-05-25T17:01:23.227Z,34.95
2023-05-25T17:03:53.044Z,34.99
2023-05-25T17:06:21.163Z,35.27
2023-05-25T17:08:49.150Z,35.32
2023-05-25T17:11:17.518Z,35.36
2023-05-25T17:13:45.540Z,35.19
2023-05-25T17:16:13.586Z,35.15
2023-05-25T17:18:42.324Z,35.06
2023-05-25T17:21:11.928Z,35.16
2023-05-25T17:23:39.930Z,34.89
2023-05-25T17:26:08.202Z,34.64
2023-05-25T17:28:36.271Z,34.55
2023-05-25T17:31:04.397Z,34.53
2023-05-25T17:33:32.648Z,34.29
2023-05-25T17:36:00.813Z,34.33
2023-05-25T17:38:30.163Z,34.43
2023-05-25T17:40:58.581Z,34.43
2023-05-25T17:43:26.552Z,34.30
2023-05-25T17:45:54.699Z,34.30
2023-05-25T17:48:23.016Z,33.91
2023-05-25T17:50:51.006Z,33.83
2023-05-25T17:53:19.096Z,33.61
2023-05-25T17:55:48.897Z,33.68
2023-05-25T17:58:17.020Z,33.30
2023-05-25T18:00:45.137Z,33.32
2023-05-25T18:03:13.736Z,33.27
2023-05-25T18:05:41.902Z,33.19
2023-05-25T18:08:09.839Z,32.64
2023-05-25T18:10:38.211Z,32.56
2023-05-25T18:13:07.577Z,32.08
2023-05-25T18:15:35.629Z,31.48
2023-05-25T18:18:05.764Z,30.66
2023-05-25T18:20:34.573Z,30.03
2023-05-25T18:23:03.317Z,29.40
2023-05-25T18:25:31.600Z,28.75
2023-05-25T18:27:59.758Z,28.04
2023-05-25T18:30:29.240Z,27.36
2023-05-25T18:32:57.548Z,27.08
2023-05-25T18:35:25.693Z,26.74
2023-05-25T18:37:53.780Z,26.33
2023-05-25T18:40:22.157Z,26.05
2023-05-25T18:42:50.880Z,25.82
2023-05-25T18:45:18.932Z,25.58
2023-05-25T18:47:48.607Z,25.36
2023-05-25T18:50:17.062Z,25.12
2023-05-25T18:52:46.833Z,24.88
2023-05-25T18:55:15.485Z,24.48
2023-05-25T18:57:43.528Z,24.39
2023-05-25T19:00:13.073Z,24.16
2023-05-25T19:02:42.014Z,23.98
2023-05-25T19:05:12.258Z,23.75
2023-05-25T19:07:54.784Z,23.60
2023-05-25T19:10:27.583Z,23.44
2023-05-25T19:12:55.942Z,23.25
2023-05-25T19:15:24.065Z,23.08
2023-05-25T19:17:52.390Z,22.92
2023-05-25T19:20:21.948Z,22.81
2023-05-25T19:22:50.127Z,22.68
2023-05-25T19:25:18.475Z,22.57
2023-05-25T19:27:46.521Z,22.44
2023-05-25T19:30:15.872Z,22.23
2023-05-25T19:32:44.290Z,22.21
2023-05-25T19:35:12.691Z,22.07
2023-05-25T19:37:42.370Z,21.95
2023-05-25T19:40:11.242Z,21.88
2023-05-25T19:42:39.300Z,21.79
2023-05-25T19:45:07.886Z,21.69
2023-05-25T19:47:36.389Z,21.62
2023-05-25T19:50:04.985Z,21.54
2023-05-25T19:52:33.231Z,21.42
2023-05-25T19:55:02.841Z,21.35
2023-05-25T19:57:30.882Z,21.27
2023-05-25T19:59:58.905Z,21.27
2023-05-25T20:02:27.611Z,21.18
2023-05-25T20:04:56.041Z,21.14
2023-05-25T20:07:24.345Z,21.11
2023-05-25T20:09:52.493Z,21.02
2023-05-25T20:12:22.381Z,20.91
2023-05-25T20:14:50.496Z,20.85
2023-05-25T20:17:18.617Z,20.74
2023-05-25T20:19:46.816Z,20.72
2023-05-25T20:22:14.866Z,20.64
2023-05-25T20:24:42.941Z,20.57
2023-05-25T20:27:11.348Z,20.48
2023-05-25T20:29:40.733Z,20.37
2023-05-25T20:32:08.972Z,20.23
2023-05-25T20:34:37.395Z,20.19
2023-05-25T20:37:05.586Z,20.15
2023-05-25T20:39:33.754Z,20.10
2023-05-25T20:42:02.686Z,20.03
2023-05-25T20:44:31.870Z,19.99
2023-05-25T20:47:01.454Z,19.90
2023-05-25T20:49:29.903Z,19.82
2023-05-25T20:51:57.934Z,19.78
2023-05-25T20:54:26.245Z,19.78
2023-05-25T20:56:54.515Z,19.77
2023-05-25T20:59:23.480Z,19.75
2023-05-25T21:01:51.541Z,19.70
2023-05-25T21:04:21.681Z,19.70
2023-05-25T21:06:49.843Z,19.66
2023-05-25T21:09:17.972Z,19.65
2023-05-25T21:11:46.379Z,19.58
2023-05-25T21:14:14.519Z,19.50
2023-05-25T21:16:42.815Z,19.49
2023-05-25T21:19:11.509Z,19.44
2023-05-25T21:21:40.913Z,19.42
2023-05-25T21:24:09.004Z,19.46
2023-05-25T21:26:37.297Z,19.38
2023-05-25T21:29:05.375Z,19.44
2023-05-25T21:31:33.459Z,19.47
2023-05-25T21:34:01.925Z,19.44
2023-05-25T21:36:30.073Z,19.41
2023-05-25T21:38:59.438Z,19.36
2023-05-25T21:41:27.856Z,19.31
2023-05-25T21:43:55.938Z,19.29
2023-05-25T21:46:24.025Z,19.27
2023-05-25T21:48:52.408Z,19.22
2023-05-25T21:51:20.603Z,19.26
2023-05-25T21:53:51.885Z,19.23
2023-05-25T21:56:21.863Z,19.20
2023-05-25T21:58:49.962Z,19.18
2023-05-25T22:01:19.149Z,19.20
2023-05-25T22:03:47.872Z,19.21
2023-05-25T22:06:16.113Z,19.22
2023-05-25T22:08:44.268Z,19.18
2023-05-25T22:11:12.672Z,19.16
2023-05-25T22:13:42.235Z,19.15
2023-05-25T22:16:10.597Z,19.14
2023-05-25T22:18:38.844Z,19.12
2023-05-25T22:21:07.112Z,19.12
2023-05-25T22:23:35.222Z,19.10
2023-05-25T22:26:05.015Z,19.11
2023-05-25T22:28:33.032Z,19.08
2023-05-25T22:31:02.480Z,19.01
2023-05-25T22:33:31.189Z,19.00
2023-05-25T22:35:59.322Z,19.00
2023-05-25T22:38:27.261Z,18.99
2023-05-25T22:40:55.723Z,18.91
2023-05-25T22:43:23.746Z,18.94
2023-05-25T22:45:54.013Z,18.91
2023-05-25T22:48:23.806Z,18.86
2023-05-25T22:50:51.824Z,18.79
2023-05-25T22:53:20.111Z,18.78
2023-05-25T22:55:49.095Z,18.78
2023-05-25T22:58:17.401Z,18.78
2023-05-25T23:00:45.561Z,18.73
2023-05-25T23:03:14.199Z,18.71
2023-05-25T23:05:44.471Z,18.65
2023-05-25T23:08:12.582Z,18.65
2023-05-25T23:10:40.948Z,18.66
2023-05-25T23:13:09.016Z,18.59
2023-05-25T23:15:40.184Z,18.67
2023-05-25T23:18:08.661Z,18.63
2023-05-25T23:20:36.773Z,18.58
2023-05-25T23:23:06.137Z,18.52
2023-05-25T23:25:34.312Z,18.52
2023-05-25T23:28:02.795Z,18.46
2023-05-25T23:30:30.883Z,18.46
2023-05-25T23:33:00.046Z,18.41
2023-05-25T23:35:28.627Z,18.36
2023-05-25T23:37:57.726Z,18.28
2023-05-25T23:40:27.514Z,18.26
2023-05-25T23:42:55.803Z,18.16
2023-05-25T23:45:23.895Z,18.10
2023-05-25T23:47:52.314Z,18.01
2023-05-25T23:50:20.574Z,17.90
2023-05-25T23:52:48.819Z,17.77
2023-05-25T23:55:17.304Z,17.67
2023-05-25T23:57:47.042Z,17.54
